createdAt,value
2023-05-05T00:01:21.250Z,14.23
2023-05-05T00:03:24.130Z,14.10
2023-05-05T00:05:25.664Z,14.05
2023-05-05T00:07:27.152Z,14.12
2023-05-05T00:09:30.291Z,14.17
2023-05-05T00:11:31.785Z,14.02
2023-05-05T00:13:33.300Z,14.09
2023-05-05T00:15:34.790Z,14.06
2023-05-05T00:17:36.354Z,14.07
2023-05-05T00:19:37.871Z,14.05
2023-05-05T00:21:39.429Z,13.98
2023-05-05T00:23:40.937Z,14.01
2023-05-05T00:25:44.107Z,14.00
2023-05-05T00:27:45.582Z,14.03
2023-05-05T00:29:47.251Z,14.00
2023-05-05T00:31:50.698Z,13.93
2023-05-05T00:33:52.216Z,13.95
2023-05-05T00:35:53.755Z,13.94
2023-05-05T00:37:55.305Z,13.91
2023-05-05T00:39:56.895Z,13.89
2023-05-05T00:41:59.720Z,13.88
2023-05-05T00:44:01.195Z,13.82
2023-05-05T00:46:11.743Z,13.83
2023-05-05T00:48:13.891Z,13.85
2023-05-05T00:50:21.722Z,13.81
2023-05-05T00:52:23.783Z,13.80
2023-05-05T00:54:25.426Z,13.78
2023-05-05T00:56:27.230Z,13.80
2023-05-05T00:58:30.469Z,13.78
2023-05-05T01:00:32.187Z,13.79
2023-05-05T01:02:33.703Z,13.76
2023-05-05T01:04:35.322Z,13.74
2023-05-05T01:06:45.172Z,13.68
2023-05-05T01:09:01.569Z,13.69
2023-05-05T01:11:12.067Z,13.52
2023-05-05T01:13:27.788Z,13.58
2023-05-05T01:15:34.680Z,13.48
2023-05-05T01:17:41.092Z,13.55
2023-05-05T01:20:02.581Z,13.49
2023-05-05T01:22:08.828Z,13.48
2023-05-05T01:24:38.770Z,13.50
2023-05-05T01:26:59.472Z,13.44
2023-05-05T01:29:16.949Z,13.49
2023-05-05T01:31:47.971Z,13.39
2023-05-05T01:33:58.086Z,13.44
2023-05-05T01:36:07.204Z,13.41
2023-05-05T01:38:16.030Z,13.41
2023-05-05T01:40:21.341Z,13.27
2023-05-05T01:42:25.721Z,13.34
2023-05-05T01:44:28.737Z,13.34
2023-05-05T01:46:30.402Z,13.38
2023-05-05T01:48:33.666Z,13.33
2023-05-05T01:50:36.562Z,13.43
2023-05-05T01:52:39.903Z,13.40
2023-05-05T01:54:43.790Z,13.42
2023-05-05T01:56:49.055Z,13.26
2023-05-05T01:58:52.832Z,13.36
2023-05-05T02:00:56.560Z,13.32
2023-05-05T02:02:59.327Z,13.31
2023-05-05T02:05:03.376Z,13.28
2023-05-05T02:07:06.605Z,13.29
2023-05-05T02:09:11.755Z,13.20
2023-05-05T02:11:14.650Z,13.19
2023-05-05T02:13:17.888Z,13.21
2023-05-05T02:15:21.987Z,13.22
2023-05-05T02:17:24.974Z,13.20
2023-05-05T02:19:30.036Z,13.23
2023-05-05T02:21:33.790Z,13.19
2023-05-05T02:23:35.447Z,13.11
2023-05-05T02:25:40.292Z,13.08
2023-05-05T02:27:43.641Z,13.14
2023-05-05T02:29:48.158Z,13.11
2023-05-05T02:31:53.133Z,13.05
2023-05-05T02:33:57.408Z,12.82
2023-05-05T02:36:08.307Z,12.93
2023-05-05T02:38:14.925Z,13.00
2023-05-05T02:40:19.826Z,13.06
2023-05-05T02:42:22.790Z,13.05
2023-05-05T02:44:25.911Z,13.07
2023-05-05T02:46:27.933Z,13.03
2023-05-05T02:48:29.439Z,13.04
2023-05-05T02:50:31.500Z,13.00
2023-05-05T02:52:33.694Z,13.02
2023-05-05T02:54:37.087Z,13.04
2023-05-05T02:56:41.327Z,12.95
2023-05-05T02:58:54.581Z,12.93
2023-05-05T03:01:07.897Z,12.99
2023-05-05T03:03:18.019Z,12.98
2023-05-05T03:05:23.217Z,13.04
2023-05-05T03:07:27.717Z,12.92
2023-05-05T03:09:35.908Z,12.95
2023-05-05T03:11:43.634Z,12.80
2023-05-05T03:13:50.603Z,12.93
2023-05-05T03:15:54.488Z,12.80
2023-05-05T03:17:58.185Z,12.87
2023-05-05T03:20:02.289Z,12.85
2023-05-05T03:22:05.095Z,12.81
2023-05-05T03:24:15.100Z,12.75
2023-05-05T03:26:17.256Z,12.75
2023-05-05T03:28:20.075Z,12.68
2023-05-05T03:30:21.550Z,12.73
2023-05-05T03:32:24.549Z,12.75
2023-05-05T03:34:26.153Z,12.72
2023-05-05T03:36:29.368Z,12.65
2023-05-05T03:38:31.043Z,12.77
2023-05-05T03:40:42.998Z,12.75
2023-05-05T03:42:45.914Z,12.79
2023-05-05T03:44:48.738Z,12.81
2023-05-05T03:46:50.206Z,12.83
2023-05-05T03:48:51.768Z,12.86
2023-05-05T03:50:53.922Z,12.96
2023-05-05T03:52:55.448Z,12.79
2023-05-05T03:54:57.134Z,13.06
2023-05-05T03:56:58.626Z,13.11
2023-05-05T03:59:00.233Z,13.10
2023-05-05T04:01:03.179Z,13.03
2023-05-05T04:03:04.911Z,13.11
2023-05-05T04:05:06.879Z,13.15
2023-05-05T04:07:08.365Z,13.16
2023-05-05T04:09:09.892Z,13.13
2023-05-05T04:11:11.400Z,13.13
2023-05-05T04:13:12.981Z,13.15
2023-05-05T04:15:14.792Z,13.14
2023-05-05T04:17:17.770Z,13.15
2023-05-05T04:19:19.303Z,13.22
2023-05-05T04:21:20.788Z,13.26
2023-05-05T04:23:22.503Z,13.31
2023-05-05T04:25:24.060Z,13.33
2023-05-05T04:27:25.698Z,13.36
2023-05-05T04:29:27.332Z,13.40
2023-05-05T04:31:29.063Z,13.32
2023-05-05T04:33:32.058Z,13.30
2023-05-05T04:35:33.636Z,13.27
2023-05-05T04:37:35.185Z,13.31
2023-05-05T04:39:36.711Z,13.35
2023-05-05T04:41:38.189Z,13.28
2023-05-05T04:43:39.676Z,13.28
2023-05-05T04:45:41.149Z,13.29
2023-05-05T04:47:42.689Z,13.36
2023-05-05T04:49:45.581Z,13.40
2023-05-05T04:51:47.060Z,13.33
2023-05-05T04:53:48.609Z,13.37
2023-05-05T04:55:50.250Z,13.37
2023-05-05T04:57:51.739Z,13.36
2023-05-05T04:59:53.472Z,13.37
2023-05-05T05:01:54.993Z,13.35
2023-05-05T05:03:56.558Z,13.29
2023-05-05T05:05:59.478Z,13.24
2023-05-05T05:08:00.960Z,13.28
2023-05-05T05:10:02.469Z,13.25
2023-05-05T05:12:04.660Z,13.30
2023-05-05T05:14:06.145Z,13.38
2023-05-05T05:16:08.199Z,13.43
2023-05-05T05:18:09.796Z,13.43
2023-05-05T05:20:11.775Z,13.48
2023-05-05T05:22:14.905Z,13.53
2023-05-05T05:24:16.378Z,13.57
2023-05-05T05:26:18.039Z,13.61
2023-05-05T05:28:19.530Z,13.65
2023-05-05T05:30:21.273Z,13.79
2023-05-05T05:32:22.904Z,13.85
2023-05-05T05:34:24.400Z,13.98
2023-05-05T05:36:25.883Z,14.17
2023-05-05T05:38:28.837Z,14.30
2023-05-05T05:40:30.344Z,14.39
2023-05-05T05:42:31.835Z,14.41
2023-05-05T05:44:33.396Z,14.43
2023-05-05T05:46:34.978Z,14.58
2023-05-05T05:48:36.494Z,14.59
2023-05-05T05:50:37.964Z,14.67
2023-05-05T05:52:39.536Z,14.73
2023-05-05T05:54:42.420Z,14.88
2023-05-05T05:56:43.961Z,14.87
2023-05-05T05:58:45.467Z,14.94
2023-05-05T06:00:48.005Z,14.99
2023-05-05T06:02:49.622Z,15.07
2023-05-05T06:04:51.207Z,15.19
2023-05-05T06:06:52.740Z,15.27
2023-05-05T06:08:54.240Z,15.32
2023-05-05T06:10:57.118Z,15.44
2023-05-05T06:12:58.677Z,15.56
2023-05-05T06:15:00.200Z,15.62
2023-05-05T06:17:01.746Z,15.76
2023-05-05T06:19:03.347Z,15.80
2023-05-05T06:21:05.208Z,15.82
2023-05-05T06:23:10.099Z,15.85
2023-05-05T06:25:14.655Z,15.95
2023-05-05T06:27:17.486Z,16.03
2023-05-05T06:29:19.012Z,16.07
2023-05-05T06:31:20.540Z,16.24
2023-05-05T06:33:22.039Z,16.17
2023-05-05T06:35:23.545Z,16.24
2023-05-05T06:37:25.026Z,16.20
2023-05-05T06:39:26.536Z,16.21
2023-05-05T06:41:28.036Z,16.17
2023-05-05T06:43:30.945Z,16.31
2023-05-05T06:45:32.466Z,16.25
2023-05-05T06:47:34.114Z,16.34
2023-05-05T06:49:35.598Z,16.40
2023-05-05T06:51:37.075Z,16.33
2023-05-05T06:53:38.555Z,16.38
2023-05-05T06:55:45.493Z,16.52
2023-05-05T06:57:47.006Z,16.62
2023-05-05T06:59:49.845Z,16.53
2023-05-05T07:01:51.372Z,16.50
2023-05-05T07:03:52.896Z,16.59
2023-05-05T07:05:54.432Z,16.56
2023-05-05T07:07:56.965Z,16.51
2023-05-05T07:09:58.513Z,16.57
2023-05-05T07:12:02.989Z,16.51
2023-05-05T07:14:04.492Z,16.49
2023-05-05T07:16:07.795Z,16.50
2023-05-05T07:18:12.170Z,16.55
2023-05-05T07:20:15.742Z,16.43
2023-05-05T07:22:17.032Z,16.33
2023-05-05T07:24:18.507Z,16.24
2023-05-05T07:26:20.009Z,16.32
2023-05-05T07:28:21.462Z,16.37
2023-05-05T07:30:23.283Z,16.39
2023-05-05T07:32:26.379Z,16.35
2023-05-05T07:34:27.912Z,16.36
2023-05-05T07:36:29.533Z,16.36
2023-05-05T07:38:31.003Z,16.29
2023-05-05T07:40:32.481Z,16.30
2023-05-05T07:42:34.016Z,16.25
2023-05-05T07:44:35.507Z,16.25
2023-05-05T07:46:37.148Z,16.11
2023-05-05T07:48:40.136Z,16.04
2023-05-05T07:50:41.598Z,15.88
2023-05-05T07:52:48.268Z,15.91
2023-05-05T07:54:55.337Z,16.03
2023-05-05T07:56:56.819Z,16.05
2023-05-05T07:58:58.316Z,16.07
2023-05-05T08:00:59.936Z,16.10
2023-05-05T08:03:01.582Z,16.12
2023-05-05T08:05:05.278Z,16.26
2023-05-05T08:07:07.521Z,16.28
2023-05-05T08:09:09.012Z,16.30
2023-05-05T08:11:10.494Z,16.33
2023-05-05T08:13:12.154Z,16.39
2023-05-05T08:15:13.720Z,16.47
2023-05-05T08:17:15.227Z,16.50
2023-05-05T08:19:28.259Z,16.47
2023-05-05T08:21:32.278Z,16.56
2023-05-05T08:23:34.818Z,16.65
2023-05-05T08:25:36.360Z,16.68
2023-05-05T08:27:38.573Z,16.74
2023-05-05T08:29:40.031Z,16.81
2023-05-05T08:31:41.530Z,16.74
2023-05-05T08:33:43.057Z,16.76
2023-05-05T08:35:44.837Z,16.86
2023-05-05T08:37:47.682Z,16.92
2023-05-05T08:39:49.360Z,16.98
2023-05-05T08:41:50.885Z,16.99
2023-05-05T08:43:52.515Z,16.98
2023-05-05T08:45:55.830Z,17.03
2023-05-05T08:47:58.222Z,17.02
2023-05-05T08:50:00.269Z,16.97
2023-05-05T08:52:04.936Z,17.07
2023-05-05T08:54:14.403Z,17.13
2023-05-05T08:56:16.457Z,17.11
2023-05-05T08:58:18.641Z,17.08
2023-05-05T09:00:20.769Z,17.16
2023-05-05T09:02:24.072Z,17.26
2023-05-05T09:04:25.666Z,17.23
2023-05-05T09:06:27.293Z,17.25
2023-05-05T09:08:29.488Z,17.18
2023-05-05T09:10:33.044Z,17.20
2023-05-05T09:12:35.173Z,17.33
2023-05-05T09:14:36.634Z,17.39
2023-05-05T09:16:41.030Z,17.37
2023-05-05T09:18:42.695Z,17.46
2023-05-05T09:20:44.206Z,17.51
2023-05-05T09:22:47.398Z,17.49
2023-05-05T09:24:54.829Z,17.80
2023-05-05T09:26:59.134Z,18.23
2023-05-05T09:29:01.385Z,18.45
2023-05-05T09:31:12.945Z,18.66
2023-05-05T09:33:14.494Z,18.67
2023-05-05T09:35:16.664Z,18.85
2023-05-05T09:37:27.205Z,18.75
2023-05-05T09:39:28.711Z,18.81
2023-05-05T09:41:37.389Z,18.91
2023-05-05T09:43:51.436Z,18.97
2023-05-05T09:46:05.717Z,18.86
2023-05-05T09:48:07.444Z,18.66
2023-05-05T09:50:09.685Z,18.42
2023-05-05T09:52:15.559Z,18.32
2023-05-05T09:54:24.350Z,18.28
2023-05-05T09:56:37.328Z,18.40
2023-05-05T09:58:38.845Z,18.38
2023-05-05T10:00:41.700Z,18.14
2023-05-05T10:02:43.310Z,17.97
2023-05-05T10:04:44.831Z,18.16
2023-05-05T10:06:46.608Z,18.01
2023-05-05T10:09:00.925Z,17.94
2023-05-05T10:11:04.115Z,17.76
2023-05-05T10:13:05.763Z,17.58
2023-05-05T10:15:08.829Z,17.46
2023-05-05T10:17:12.774Z,17.49
2023-05-05T10:19:15.849Z,17.55
2023-05-05T10:21:20.506Z,17.52
2023-05-05T10:23:24.145Z,17.73
2023-05-05T10:25:29.700Z,17.84
2023-05-05T10:27:38.838Z,17.89
2023-05-05T10:29:48.389Z,17.77
2023-05-05T10:31:52.855Z,17.58
2023-05-05T10:34:03.346Z,17.40
2023-05-05T10:36:05.588Z,17.43
2023-05-05T10:38:08.382Z,17.42
2023-05-05T10:40:10.516Z,17.52
2023-05-05T10:42:14.896Z,17.61
2023-05-05T10:44:16.721Z,17.64
2023-05-05T10:46:19.933Z,17.66
2023-05-05T10:48:29.764Z,17.60
2023-05-05T10:50:35.825Z,17.49
2023-05-05T10:52:45.556Z,17.64
2023-05-05T10:54:54.260Z,17.79
2023-05-05T10:56:57.466Z,17.69
2023-05-05T10:59:00.471Z,18.00
2023-05-05T11:01:02.631Z,18.12
2023-05-05T11:03:20.810Z,18.25
2023-05-05T11:05:22.580Z,18.41
2023-05-05T11:07:25.527Z,18.49
2023-05-05T11:09:27.567Z,18.71
2023-05-05T11:12:04.861Z,18.79
2023-05-05T11:14:21.361Z,18.97
2023-05-05T11:16:45.101Z,19.18
2023-05-05T11:18:46.658Z,19.40
2023-05-05T11:21:13.326Z,19.50
2023-05-05T11:23:25.734Z,19.52
2023-05-05T11:25:48.793Z,19.46
2023-05-05T11:28:05.894Z,19.53
2023-05-05T11:30:09.167Z,19.70
2023-05-05T11:32:11.216Z,19.85
2023-05-05T11:34:25.402Z,19.79
2023-05-05T11:36:39.827Z,19.46
2023-05-05T11:39:07.427Z,19.67
2023-05-05T11:41:13.297Z,19.27
2023-05-05T11:43:18.703Z,19.70
2023-05-05T11:45:21.963Z,19.40
2023-05-05T11:47:31.344Z,19.17
2023-05-05T11:49:34.430Z,19.51
2023-05-05T11:51:36.573Z,19.77
2023-05-05T11:53:42.058Z,19.98
2023-05-05T11:55:44.922Z,20.24
2023-05-05T11:57:46.416Z,20.36
2023-05-05T11:59:54.375Z,20.52
2023-05-05T12:01:55.885Z,20.44
2023-05-05T12:03:57.612Z,20.07
2023-05-05T12:05:59.307Z,20.08
2023-05-05T12:08:01.400Z,20.09
2023-05-05T12:10:02.987Z,20.23
2023-05-05T12:12:06.631Z,20.14
2023-05-05T12:14:09.054Z,19.97
2023-05-05T12:16:11.112Z,20.18
2023-05-05T12:18:18.372Z,20.15
2023-05-05T12:20:29.508Z,20.07
2023-05-05T12:22:31.076Z,20.00
2023-05-05T12:24:32.640Z,19.90
2023-05-05T12:26:34.125Z,19.75
2023-05-05T12:28:47.524Z,19.94
2023-05-05T12:30:56.155Z,20.11
2023-05-05T12:33:02.109Z,20.23
2023-05-05T12:35:04.277Z,20.31
2023-05-05T12:37:05.959Z,20.45
2023-05-05T12:39:07.611Z,20.62
2023-05-05T12:41:09.218Z,20.50
2023-05-05T12:43:22.469Z,20.58
2023-05-05T12:45:25.493Z,20.62
2023-05-05T12:47:31.128Z,21.01
2023-05-05T12:49:45.443Z,21.25
2023-05-05T12:51:54.467Z,21.50
2023-05-05T12:54:03.022Z,21.55
2023-05-05T12:56:04.824Z,21.49
2023-05-05T12:58:06.392Z,21.45
2023-05-05T13:00:34.418Z,21.66
2023-05-05T13:02:36.084Z,21.89
2023-05-05T13:04:48.165Z,22.03
2023-05-05T13:07:07.161Z,22.14
2023-05-05T13:09:08.952Z,22.20
2023-05-05T13:11:10.498Z,22.18
2023-05-05T13:13:11.989Z,22.13
2023-05-05T13:15:13.772Z,22.08
2023-05-05T13:17:17.037Z,21.80
2023-05-05T13:19:19.033Z,22.03
2023-05-05T13:21:20.572Z,22.14
2023-05-05T13:23:23.376Z,22.09
2023-05-05T13:25:26.145Z,22.10
2023-05-05T13:27:27.700Z,22.06
2023-05-05T13:29:31.540Z,22.09
2023-05-05T13:31:33.505Z,22.18
2023-05-05T13:33:36.391Z,22.16
2023-05-05T13:35:37.915Z,22.01
2023-05-05T13:37:39.988Z,22.05
2023-05-05T13:39:41.552Z,22.09
2023-05-05T13:41:43.037Z,22.11
2023-05-05T13:43:44.575Z,22.20
2023-05-05T13:45:46.068Z,22.46
2023-05-05T13:47:47.529Z,22.55
2023-05-05T13:49:50.463Z,22.62
2023-05-05T13:51:51.930Z,22.25
2023-05-05T13:53:53.405Z,22.05
2023-05-05T13:55:55.072Z,21.96
2023-05-05T13:57:56.616Z,21.85
2023-05-05T13:59:58.097Z,21.92
2023-05-05T14:01:59.559Z,21.65
2023-05-05T14:04:03.640Z,21.47
2023-05-05T14:06:08.525Z,21.31
2023-05-05T14:08:10.000Z,21.36
2023-05-05T14:10:11.551Z,21.14
2023-05-05T14:12:13.016Z,20.92
2023-05-05T14:14:14.492Z,20.89
2023-05-05T14:16:16.086Z,20.86
2023-05-05T14:18:17.643Z,20.90
2023-05-05T14:20:19.110Z,20.84
2023-05-05T14:22:21.967Z,20.83
2023-05-05T14:24:23.586Z,20.73
2023-05-05T14:26:25.081Z,20.68
2023-05-05T14:28:26.730Z,20.50
2023-05-05T14:30:28.276Z,20.54
2023-05-05T14:32:29.761Z,20.39
2023-05-05T14:34:31.362Z,20.26
2023-05-05T14:36:33.993Z,20.26
2023-05-05T14:38:36.903Z,20.15
2023-05-05T14:40:38.397Z,20.10
2023-05-05T14:42:39.897Z,20.14
2023-05-05T14:44:41.395Z,20.07
2023-05-05T14:46:44.666Z,20.00
2023-05-05T14:48:47.378Z,19.98
2023-05-05T14:50:48.929Z,19.97
2023-05-05T14:52:50.429Z,19.86
2023-05-05T14:54:53.243Z,19.90
2023-05-05T14:56:55.031Z,19.75
2023-05-05T14:58:56.569Z,19.74
2023-05-05T15:00:58.616Z,19.67
2023-05-05T15:03:00.155Z,19.69
2023-05-05T15:05:17.379Z,19.26
2023-05-05T15:07:18.965Z,19.48
2023-05-05T15:09:40.971Z,19.42
2023-05-05T15:11:43.887Z,19.33
2023-05-05T15:13:45.425Z,19.33
2023-05-05T15:15:46.946Z,19.35
2023-05-05T15:17:48.480Z,19.29
2023-05-05T15:19:50.036Z,19.21
2023-05-05T15:21:51.560Z,19.07
2023-05-05T15:23:53.043Z,19.05
2023-05-05T15:25:54.584Z,19.01
2023-05-05T15:27:57.458Z,19.02
2023-05-05T15:29:58.941Z,18.94
2023-05-05T15:32:00.565Z,18.93
2023-05-05T15:34:02.198Z,18.85
2023-05-05T15:36:03.960Z,18.80
2023-05-05T15:38:06.487Z,18.75
2023-05-05T15:40:09.182Z,18.63
2023-05-05T15:42:10.700Z,18.49
2023-05-05T15:44:13.549Z,18.45
2023-05-05T15:46:15.050Z,18.44
2023-05-05T15:48:16.531Z,18.40
2023-05-05T15:50:18.328Z,18.28
2023-05-05T15:52:19.826Z,18.20
2023-05-05T15:54:21.406Z,18.18
2023-05-05T15:56:22.893Z,18.12
2023-05-05T15:58:24.459Z,17.98
2023-05-05T16:00:27.575Z,17.88
2023-05-05T16:02:29.162Z,17.44
2023-05-05T16:04:30.845Z,17.10
2023-05-05T16:06:32.347Z,16.91
2023-05-05T16:08:33.834Z,16.69
2023-05-05T16:10:35.501Z,16.40
2023-05-05T16:12:37.038Z,16.36
2023-05-05T16:14:38.506Z,16.24
2023-05-05T16:16:41.465Z,16.21
2023-05-05T16:18:43.088Z,16.00
2023-05-05T16:20:44.565Z,16.06
2023-05-05T16:22:46.069Z,16.18
2023-05-05T16:24:47.574Z,15.93
2023-05-05T16:26:49.041Z,15.92
2023-05-05T16:28:50.546Z,16.07
2023-05-05T16:30:55.718Z,16.08
2023-05-05T16:32:58.589Z,16.11
2023-05-05T16:35:00.107Z,16.21
2023-05-05T16:37:01.602Z,15.96
2023-05-05T16:39:03.177Z,15.99
2023-05-05T16:41:04.882Z,15.89
2023-05-05T16:43:06.410Z,15.70
2023-05-05T16:45:09.128Z,15.86
2023-05-05T16:47:10.818Z,15.91
2023-05-05T16:49:13.635Z,16.02
2023-05-05T16:51:15.130Z,15.83
2023-05-05T16:53:16.611Z,15.68
2023-05-05T16:55:18.301Z,15.84
2023-05-05T16:57:19.788Z,15.78
2023-05-05T16:59:21.273Z,15.84
2023-05-05T17:01:22.874Z,15.88
2023-05-05T17:03:24.352Z,15.94
2023-05-05T17:05:27.308Z,16.09
2023-05-05T17:07:28.856Z,16.11
2023-05-05T17:09:30.333Z,15.98
2023-05-05T17:11:31.877Z,15.95
2023-05-05T17:13:33.349Z,16.08
2023-05-05T17:15:34.878Z,15.96
2023-05-05T17:17:36.463Z,15.87
2023-05-05T17:19:37.992Z,15.69
2023-05-05T17:21:40.879Z,15.62
2023-05-05T17:23:42.342Z,15.74
2023-05-05T17:25:43.855Z,15.69
2023-05-05T17:27:45.648Z,15.69
2023-05-05T17:29:47.211Z,15.91
2023-05-05T17:31:48.819Z,15.65
2023-05-05T17:33:50.295Z,16.04
2023-05-05T17:35:51.783Z,15.85
2023-05-05T17:37:54.620Z,15.72
2023-05-05T17:39:56.184Z,15.64
2023-05-05T17:41:57.664Z,15.50
2023-05-05T17:43:59.185Z,15.37
2023-05-05T17:46:00.723Z,15.39
2023-05-05T17:48:02.238Z,15.47
2023-05-05T17:50:04.480Z,15.57
2023-05-05T17:52:05.961Z,15.51
2023-05-05T17:54:08.836Z,15.52
2023-05-05T17:56:10.316Z,15.52
2023-05-05T17:58:12.103Z,15.58
2023-05-05T18:00:14.328Z,15.63
2023-05-05T18:02:15.967Z,15.59
2023-05-05T18:04:17.471Z,15.49
2023-05-05T18:06:19.030Z,15.50
2023-05-05T18:08:20.539Z,15.45
2023-05-05T18:10:23.404Z,15.56
2023-05-05T18:12:24.962Z,15.61
2023-05-05T18:14:26.728Z,15.64
2023-05-05T18:16:28.259Z,15.74
2023-05-05T18:18:31.684Z,15.55
2023-05-05T18:20:33.207Z,15.42
2023-05-05T18:22:34.715Z,15.44
2023-05-05T18:24:36.240Z,15.45
2023-05-05T18:26:39.716Z,15.39
2023-05-05T18:28:41.223Z,15.24
2023-05-05T18:30:42.760Z,15.30
2023-05-05T18:32:44.235Z,15.34
2023-05-05T18:34:45.836Z,15.32
2023-05-05T18:36:51.272Z,15.28
2023-05-05T18:38:53.561Z,15.25
2023-05-05T18:40:55.705Z,15.20
2023-05-05T18:42:58.598Z,15.19
2023-05-05T18:45:00.137Z,15.29
2023-05-05T18:47:01.914Z,15.28
2023-05-05T18:49:03.568Z,15.21
2023-05-05T18:51:05.332Z,15.19
2023-05-05T18:53:06.829Z,15.13
2023-05-05T18:55:08.805Z,15.21
2023-05-05T18:57:10.397Z,15.19
2023-05-05T18:59:13.389Z,15.17
2023-05-05T19:01:14.917Z,15.19
2023-05-05T19:03:16.453Z,15.18
2023-05-05T19:05:18.118Z,15.08
2023-05-05T19:07:31.607Z,15.14
2023-05-05T19:09:36.496Z,15.11
2023-05-05T19:11:38.338Z,14.97
2023-05-05T19:13:40.187Z,14.87
2023-05-05T19:15:43.169Z,14.88
2023-05-05T19:17:44.660Z,14.85
2023-05-05T19:19:46.120Z,15.04
2023-05-05T19:21:47.944Z,15.09
2023-05-05T19:23:49.466Z,14.97
2023-05-05T19:25:51.076Z,14.83
2023-05-05T19:27:52.589Z,14.84
2023-05-05T19:29:54.068Z,14.85
2023-05-05T19:31:57.924Z,14.90
2023-05-05T19:34:01.572Z,14.92
2023-05-05T19:36:03.348Z,14.87
2023-05-05T19:38:04.839Z,14.92
2023-05-05T19:40:07.581Z,14.88
2023-05-05T19:42:09.126Z,14.78
2023-05-05T19:44:10.629Z,14.83
2023-05-05T19:46:12.275Z,14.85
2023-05-05T19:48:15.118Z,14.84
2023-05-05T19:50:16.589Z,14.77
2023-05-05T19:52:18.113Z,14.59
2023-05-05T19:54:19.629Z,14.60
2023-05-05T19:56:21.106Z,14.62
2023-05-05T19:58:23.130Z,14.66
2023-05-05T20:00:24.633Z,14.72
2023-05-05T20:02:26.163Z,14.64
2023-05-05T20:04:29.024Z,14.65
2023-05-05T20:06:30.986Z,14.58
2023-05-05T20:08:32.430Z,14.69
2023-05-05T20:10:35.039Z,14.76
2023-05-05T20:12:36.683Z,14.76
2023-05-05T20:14:38.210Z,14.76
2023-05-05T20:16:39.705Z,14.78
2023-05-05T20:18:41.203Z,14.70
2023-05-05T20:20:44.071Z,14.61
2023-05-05T20:22:46.375Z,14.44
2023-05-05T20:24:47.839Z,14.34
2023-05-05T20:26:49.387Z,14.25
2023-05-05T20:28:50.862Z,14.29
2023-05-05T20:30:52.325Z,14.11
2023-05-05T20:32:53.914Z,14.22
2023-05-05T20:34:55.416Z,14.25
2023-05-05T20:36:58.349Z,14.34
2023-05-05T20:39:00.002Z,14.35
2023-05-05T20:41:01.570Z,14.15
2023-05-05T20:43:03.118Z,14.20
2023-05-05T20:45:05.701Z,14.30
2023-05-05T20:47:07.405Z,14.35
2023-05-05T20:49:08.981Z,14.38
2023-05-05T20:51:10.520Z,14.19
2023-05-05T20:53:13.350Z,14.20
2023-05-05T20:55:15.424Z,14.20
2023-05-05T20:57:16.950Z,14.23
2023-05-05T20:59:18.464Z,14.16
2023-05-05T21:01:20.196Z,14.15
2023-05-05T21:03:21.782Z,14.14
2023-05-05T21:05:23.481Z,14.14
2023-05-05T21:07:24.928Z,14.08
2023-05-05T21:09:27.742Z,14.18
2023-05-05T21:11:29.216Z,14.23
2023-05-05T21:13:30.657Z,14.27
2023-05-05T21:15:32.157Z,14.30
2023-05-05T21:17:33.975Z,14.29
2023-05-05T21:19:35.484Z,14.33
2023-05-05T21:21:36.982Z,14.29
2023-05-05T21:23:38.459Z,14.32
2023-05-05T21:25:41.370Z,14.35
2023-05-05T21:27:43.379Z,14.38
2023-05-05T21:29:44.898Z,14.37
2023-05-05T21:31:46.394Z,14.38
2023-05-05T21:33:47.972Z,14.39
2023-05-05T21:35:49.434Z,14.40
2023-05-05T21:37:50.916Z,14.48
2023-05-05T21:39:52.422Z,14.52
2023-05-05T21:41:55.239Z,14.47
2023-05-05T21:43:57.864Z,14.45
2023-05-05T21:45:59.555Z,14.40
2023-05-05T21:48:01.098Z,14.42
2023-05-05T21:50:02.991Z,14.44
2023-05-05T21:52:04.520Z,14.45
2023-05-05T21:54:06.159Z,14.41
2023-05-05T21:56:07.737Z,14.47
2023-05-05T21:58:10.606Z,14.49
2023-05-05T22:00:13.179Z,14.44
2023-05-05T22:02:17.764Z,14.42
2023-05-05T22:04:19.286Z,14.41
2023-05-05T22:06:21.246Z,14.42
2023-05-05T22:08:22.702Z,14.40
2023-05-05T22:10:24.211Z,14.39
2023-05-05T22:12:25.749Z,14.37
2023-05-05T22:14:28.761Z,14.37
2023-05-05T22:16:30.348Z,14.41
2023-05-05T22:18:31.839Z,14.39
2023-05-05T22:20:33.387Z,14.31
2023-05-05T22:22:34.974Z,14.31
2023-05-05T22:24:36.439Z,14.30
2023-05-05T22:26:37.894Z,14.31
2023-05-05T22:28:39.430Z,14.36
2023-05-05T22:30:42.314Z,14.37
2023-05-05T22:32:43.848Z,14.32
2023-05-05T22:34:45.352Z,14.27
2023-05-05T22:36:46.922Z,14.27
2023-05-05T22:38:48.418Z,14.26
2023-05-05T22:40:49.957Z,14.16
2023-05-05T22:42:51.420Z,14.21
2023-05-05T22:44:52.913Z,14.22
2023-05-05T22:46:55.966Z,14.21
2023-05-05T22:48:57.570Z,14.30
2023-05-05T22:50:59.060Z,14.41
2023-05-05T22:53:00.590Z,14.25
2023-05-05T22:55:02.292Z,14.25
2023-05-05T22:57:03.914Z,14.34
2023-05-05T22:59:05.387Z,14.39
2023-05-05T23:01:06.969Z,14.25
2023-05-05T23:03:10.109Z,14.24
2023-05-05T23:05:11.875Z,14.30
2023-05-05T23:07:13.677Z,14.22
2023-05-05T23:09:16.831Z,14.17
2023-05-05T23:11:18.403Z,14.14
2023-05-05T23:13:19.978Z,14.02
2023-05-05T23:15:21.517Z,14.02
2023-05-05T23:17:23.045Z,13.96
2023-05-05T23:19:25.948Z,13.92
2023-05-05T23:21:27.763Z,13.98
2023-05-05T23:23:29.896Z,13.93
2023-05-05T23:25:31.383Z,13.90
2023-05-05T23:27:32.872Z,13.88
2023-05-05T23:29:34.428Z,14.03
2023-05-05T23:31:35.913Z,13.93
2023-05-05T23:33:37.379Z,13.96
2023-05-05T23:35:40.176Z,13.89
2023-05-05T23:37:41.694Z,13.93
2023-05-05T23:39:43.181Z,13.98
2023-05-05T23:41:44.695Z,13.98
2023-05-05T23:43:46.182Z,13.92
2023-05-05T23:45:47.685Z,13.86
2023-05-05T23:47:49.217Z,13.78
2023-05-05T23:49:50.762Z,13.80
2023-05-05T23:51:53.634Z,13.77
2023-05-05T23:53:56.568Z,13.70
2023-05-05T23:55:58.077Z,13.69
2023-05-05T23:57:59.984Z,13.78
